UAL204 KGSP-KATL
Flight info
| Callsign | UAL204 |
|---|---|
| Flight time | 0h 32m |
| Altitude | 22000 |
| Route | DGESS OZZZI2 |
| Aircraft | B738/M-SDE2E3FGHIRWXY/LB1 |
Departure
| Time | 2026-04-19 04:23 |
|---|---|
| Airport | Greenville-Spartanburg International Airport (KGSP) |
Arrival
| Time | 2026-04-19 04:55 |
|---|---|
| Airport | Hartsfield Jackson Atlanta International Airport (KATL) |
| Time | Latitude | Longitude | Altitude | Speed | Heading |
|---|---|---|---|---|---|
| 2026-04-19 04:04 | 34.89266 | -82.21678 | 959 ft | 0 kts | 123° |
| 2026-04-19 04:15 | 34.89267 | -82.21680 | 960 ft | 2 kts | 122° |
| 2026-04-19 04:16 | 34.89280 | -82.21707 | 955 ft | 4 kts | 113° |
| 2026-04-19 04:16 | 34.89288 | -82.21738 | 955 ft | 4 kts | 92° |
| 2026-04-19 04:16 | 34.89283 | -82.21766 | 955 ft | 4 kts | 39° |
| 2026-04-19 04:16 | 34.89279 | -82.21770 | 960 ft | 0 kts | 32° |
| 2026-04-19 04:18 | 34.89283 | -82.21767 | 957 ft | 3 kts | 32° |
| 2026-04-19 04:18 | 34.89340 | -82.21724 | 958 ft | 15 kts | 32° |
| 2026-04-19 04:19 | 34.89436 | -82.21738 | 957 ft | 14 kts | 6° |
| 2026-04-19 04:19 | 34.89527 | -82.21679 | 958 ft | 20 kts | 31° |
| 2026-04-19 04:19 | 34.89658 | -82.21580 | 958 ft | 22 kts | 32° |
| 2026-04-19 04:19 | 34.89788 | -82.21481 | 957 ft | 21 kts | 32° |
| 2026-04-19 04:20 | 34.89919 | -82.21381 | 958 ft | 25 kts | 32° |
| 2026-04-19 04:20 | 34.90073 | -82.21263 | 957 ft | 26 kts | 32° |
| 2026-04-19 04:20 | 34.90219 | -82.21151 | 959 ft | 24 kts | 32° |
| 2026-04-19 04:20 | 34.90356 | -82.21047 | 956 ft | 24 kts | 32° |
| 2026-04-19 04:21 | 34.90498 | -82.20937 | 958 ft | 24 kts | 32° |
| 2026-04-19 04:21 | 34.90631 | -82.20837 | 959 ft | 20 kts | 32° |
| 2026-04-19 04:21 | 34.90732 | -82.20771 | 957 ft | 15 kts | 5° |
| 2026-04-19 04:21 | 34.90797 | -82.20846 | 955 ft | 13 kts | 295° |
| 2026-04-19 04:22 | 34.90795 | -82.20944 | 957 ft | 12 kts | 223° |
| 2026-04-19 04:22 | 34.90629 | -82.21073 | 957 ft | 59 kts | 212° |
| 2026-04-19 04:22 | 34.90088 | -82.21487 | 955 ft | 122 kts | 211° |
| 2026-04-19 04:22 | 34.89233 | -82.22143 | 1037 ft | 162 kts | 214° |
| 2026-04-19 04:23 | 34.88279 | -82.22904 | 1709 ft | 160 kts | 215° |
| 2026-04-19 04:23 | 34.87392 | -82.23603 | 2636 ft | 145 kts | 220° |
| 2026-04-19 04:23 | 34.86874 | -82.24666 | 3059 ft | 164 kts | 262° |
| 2026-04-19 04:23 | 34.86807 | -82.26166 | 3317 ft | 190 kts | 264° |
| 2026-04-19 04:24 | 34.86695 | -82.27836 | 3493 ft | 210 kts | 263° |
| 2026-04-19 04:24 | 34.86528 | -82.29678 | 3838 ft | 221 kts | 262° |
| 2026-04-19 04:24 | 34.86318 | -82.31552 | 4169 ft | 235 kts | 260° |
| 2026-04-19 04:24 | 34.86053 | -82.33576 | 4552 ft | 248 kts | 260° |
| 2026-04-19 04:25 | 34.85746 | -82.35694 | 5314 ft | 251 kts | 259° |
| 2026-04-19 04:25 | 34.85422 | -82.37778 | 6168 ft | 252 kts | 258° |
| 2026-04-19 04:25 | 34.85075 | -82.39888 | 6907 ft | 257 kts | 258° |
| 2026-04-19 04:25 | 34.84710 | -82.42033 | 7670 ft | 260 kts | 257° |
| 2026-04-19 04:26 | 34.84332 | -82.44201 | 8475 ft | 263 kts | 257° |
| 2026-04-19 04:26 | 34.83944 | -82.46387 | 9330 ft | 266 kts | 256° |
| 2026-04-19 04:26 | 34.83547 | -82.48599 | 10135 ft | 270 kts | 256° |
| 2026-04-19 04:26 | 34.83130 | -82.50898 | 10503 ft | 290 kts | 256° |
| 2026-04-19 04:27 | 34.82672 | -82.53398 | 10691 ft | 315 kts | 256° |
| 2026-04-19 04:27 | 34.82181 | -82.56082 | 10984 ft | 332 kts | 256° |
| 2026-04-19 04:27 | 34.81673 | -82.58852 | 11635 ft | 337 kts | 256° |
| 2026-04-19 04:27 | 34.81163 | -82.61633 | 12442 ft | 337 kts | 256° |
| 2026-04-19 04:28 | 34.80651 | -82.64420 | 13251 ft | 339 kts | 255° |
| 2026-04-19 04:28 | 34.80135 | -82.67221 | 14023 ft | 340 kts | 255° |
| 2026-04-19 04:28 | 34.79614 | -82.70042 | 14745 ft | 342 kts | 256° |
| 2026-04-19 04:28 | 34.79089 | -82.72880 | 15480 ft | 345 kts | 256° |
| 2026-04-19 04:29 | 34.78532 | -82.75725 | 16228 ft | 347 kts | 252° |
| 2026-04-19 04:29 | 34.77514 | -82.78340 | 16927 ft | 349 kts | 238° |
| 2026-04-19 04:29 | 34.76140 | -82.80787 | 17618 ft | 353 kts | 237° |
| 2026-04-19 04:29 | 34.74724 | -82.83242 | 18321 ft | 356 kts | 236° |
| 2026-04-19 04:30 | 34.73295 | -82.85720 | 18905 ft | 359 kts | 237° |
| 2026-04-19 04:30 | 34.71863 | -82.88222 | 19516 ft | 362 kts | 237° |
| 2026-04-19 04:30 | 34.70426 | -82.90750 | 20107 ft | 365 kts | 237° |
| 2026-04-19 04:30 | 34.68980 | -82.93302 | 20681 ft | 369 kts | 238° |
| 2026-04-19 04:31 | 34.67525 | -82.95877 | 21352 ft | 369 kts | 238° |
| 2026-04-19 04:31 | 34.66070 | -82.98450 | 21874 ft | 371 kts | 238° |
| 2026-04-19 04:31 | 34.64608 | -83.01033 | 21990 ft | 371 kts | 238° |
| 2026-04-19 04:31 | 34.63154 | -83.03598 | 22001 ft | 367 kts | 238° |
| 2026-04-19 04:32 | 34.61708 | -83.06144 | 22007 ft | 366 kts | 238° |
| 2026-04-19 04:32 | 34.60262 | -83.08690 | 22019 ft | 367 kts | 238° |
| 2026-04-19 04:32 | 34.58813 | -83.11242 | 22022 ft | 367 kts | 238° |
| 2026-04-19 04:32 | 34.57361 | -83.13796 | 22029 ft | 368 kts | 238° |
| 2026-04-19 04:33 | 34.55909 | -83.16349 | 22046 ft | 368 kts | 238° |
| 2026-04-19 04:33 | 34.54457 | -83.18900 | 22015 ft | 368 kts | 238° |
| 2026-04-19 04:33 | 34.53006 | -83.21449 | 22016 ft | 367 kts | 238° |
| 2026-04-19 04:33 | 34.51556 | -83.23994 | 22030 ft | 367 kts | 238° |
| 2026-04-19 04:34 | 34.50107 | -83.26534 | 22032 ft | 366 kts | 238° |
| 2026-04-19 04:34 | 34.48659 | -83.29070 | 22036 ft | 366 kts | 238° |
| 2026-04-19 04:34 | 34.47203 | -83.31602 | 22026 ft | 365 kts | 238° |
| 2026-04-19 04:34 | 34.45766 | -83.34072 | 22015 ft | 351 kts | 237° |
| 2026-04-19 04:35 | 34.44375 | -83.36456 | 21722 ft | 344 kts | 237° |
| 2026-04-19 04:35 | 34.43009 | -83.38798 | 21366 ft | 339 kts | 237° |
| 2026-04-19 04:35 | 34.41658 | -83.41116 | 20970 ft | 335 kts | 237° |
| 2026-04-19 04:35 | 34.40322 | -83.43410 | 20519 ft | 332 kts | 237° |
| 2026-04-19 04:36 | 34.38997 | -83.45684 | 20100 ft | 329 kts | 237° |
| 2026-04-19 04:36 | 34.37682 | -83.47941 | 19667 ft | 327 kts | 237° |
| 2026-04-19 04:36 | 34.36375 | -83.50181 | 19236 ft | 325 kts | 237° |
| 2026-04-19 04:36 | 34.35074 | -83.52412 | 18801 ft | 324 kts | 237° |
| 2026-04-19 04:37 | 34.33776 | -83.54637 | 18366 ft | 323 kts | 237° |
| 2026-04-19 04:37 | 34.32489 | -83.56840 | 17882 ft | 321 kts | 236° |
| 2026-04-19 04:37 | 34.31202 | -83.59039 | 17426 ft | 319 kts | 236° |
| 2026-04-19 04:37 | 34.30494 | -83.60249 | 17158 ft | 318 kts | 236° |
| 2026-04-19 04:38 | 34.29607 | -83.61765 | 16850 ft | 316 kts | 236° |
| 2026-04-19 04:38 | 34.28876 | -83.62928 | 16621 ft | 316 kts | 231° |
| 2026-04-19 04:38 | 34.27552 | -83.64508 | 16250 ft | 316 kts | 224° |
| 2026-04-19 04:38 | 34.25891 | -83.66246 | 15815 ft | 315 kts | 223° |
| 2026-04-19 04:39 | 34.24227 | -83.67962 | 15395 ft | 314 kts | 223° |
| 2026-04-19 04:39 | 34.22576 | -83.69676 | 15007 ft | 312 kts | 223° |
| 2026-04-19 04:39 | 34.20938 | -83.71392 | 14542 ft | 312 kts | 223° |
| 2026-04-19 04:39 | 34.19309 | -83.73110 | 14135 ft | 310 kts | 223° |
| 2026-04-19 04:40 | 34.17689 | -83.74825 | 13716 ft | 309 kts | 223° |
| 2026-04-19 04:40 | 34.16080 | -83.76532 | 13273 ft | 308 kts | 223° |
| 2026-04-19 04:40 | 34.14696 | -83.78001 | 12899 ft | 306 kts | 224° |
| 2026-04-19 04:40 | 34.13291 | -83.79492 | 12531 ft | 305 kts | 224° |
| 2026-04-19 04:41 | 34.11705 | -83.81174 | 12132 ft | 303 kts | 224° |
| 2026-04-19 04:41 | 34.10128 | -83.82845 | 11729 ft | 301 kts | 224° |
| 2026-04-19 04:41 | 34.08561 | -83.84514 | 11334 ft | 300 kts | 224° |
| 2026-04-19 04:41 | 34.07005 | -83.86186 | 10939 ft | 299 kts | 224° |
| 2026-04-19 04:42 | 34.05455 | -83.87852 | 10599 ft | 296 kts | 224° |
| 2026-04-19 04:42 | 34.03945 | -83.89474 | 10452 ft | 287 kts | 224° |
| 2026-04-19 04:42 | 34.02480 | -83.91046 | 10326 ft | 278 kts | 224° |
| 2026-04-19 04:42 | 34.01075 | -83.92551 | 10202 ft | 270 kts | 225° |
| 2026-04-19 04:43 | 33.99693 | -83.94030 | 10088 ft | 262 kts | 225° |
| 2026-04-19 04:43 | 33.98347 | -83.95470 | 9928 ft | 257 kts | 224° |
| 2026-04-19 04:43 | 33.96792 | -83.96543 | 9617 ft | 264 kts | 199° |
| 2026-04-19 04:43 | 33.94963 | -83.96822 | 9364 ft | 267 kts | 185° |
| 2026-04-19 04:44 | 33.93103 | -83.96762 | 9085 ft | 267 kts | 182° |
| 2026-04-19 04:44 | 33.91259 | -83.96645 | 8931 ft | 263 kts | 181° |
| 2026-04-19 04:44 | 33.89421 | -83.96539 | 8834 ft | 267 kts | 182° |
| 2026-04-19 04:44 | 33.87540 | -83.96442 | 8721 ft | 274 kts | 182° |
| 2026-04-19 04:45 | 33.85619 | -83.96351 | 8615 ft | 278 kts | 182° |
| 2026-04-19 04:45 | 33.83714 | -83.96271 | 8558 ft | 267 kts | 185° |
| 2026-04-19 04:45 | 33.81951 | -83.96551 | 8447 ft | 247 kts | 197° |
| 2026-04-19 04:45 | 33.80317 | -83.97014 | 8221 ft | 238 kts | 198° |
| 2026-04-19 04:46 | 33.78730 | -83.97479 | 7971 ft | 232 kts | 197° |
| 2026-04-19 04:46 | 33.77163 | -83.97926 | 7607 ft | 232 kts | 197° |
| 2026-04-19 04:46 | 33.75586 | -83.98360 | 7246 ft | 232 kts | 197° |
| 2026-04-19 04:46 | 33.74022 | -83.98778 | 7000 ft | 230 kts | 196° |
| 2026-04-19 04:47 | 33.72464 | -83.99186 | 6822 ft | 229 kts | 195° |
| 2026-04-19 04:47 | 33.70903 | -83.99591 | 6650 ft | 231 kts | 195° |
| 2026-04-19 04:47 | 33.69327 | -83.99997 | 6478 ft | 232 kts | 195° |
| 2026-04-19 04:47 | 33.67743 | -84.00404 | 6296 ft | 234 kts | 195° |
| 2026-04-19 04:48 | 33.66206 | -84.00992 | 6082 ft | 231 kts | 216° |
| 2026-04-19 04:48 | 33.65192 | -84.02406 | 5919 ft | 223 kts | 249° |
| 2026-04-19 04:48 | 33.64897 | -84.04207 | 5767 ft | 221 kts | 272° |
| 2026-04-19 04:48 | 33.64990 | -84.06028 | 5601 ft | 215 kts | 272° |
| 2026-04-19 04:49 | 33.65013 | -84.07780 | 5424 ft | 205 kts | 271° |
| 2026-04-19 04:49 | 33.65013 | -84.09449 | 5282 ft | 194 kts | 271° |
| 2026-04-19 04:49 | 33.65008 | -84.11026 | 5152 ft | 186 kts | 270° |
| 2026-04-19 04:49 | 33.65004 | -84.12582 | 5038 ft | 186 kts | 270° |
| 2026-04-19 04:50 | 33.64999 | -84.14121 | 4983 ft | 183 kts | 271° |
| 2026-04-19 04:50 | 33.64995 | -84.15622 | 4974 ft | 183 kts | 270° |
| 2026-04-19 04:50 | 33.64991 | -84.17182 | 4763 ft | 189 kts | 270° |
| 2026-04-19 04:50 | 33.64987 | -84.18768 | 4520 ft | 184 kts | 270° |
| 2026-04-19 04:51 | 33.64983 | -84.20249 | 4294 ft | 178 kts | 270° |
| 2026-04-19 04:51 | 33.64980 | -84.21741 | 4065 ft | 179 kts | 271° |
| 2026-04-19 04:51 | 33.64978 | -84.23232 | 3830 ft | 179 kts | 271° |
| 2026-04-19 04:51 | 33.64973 | -84.24715 | 3599 ft | 177 kts | 271° |
| 2026-04-19 04:52 | 33.64970 | -84.26187 | 3377 ft | 177 kts | 271° |
| 2026-04-19 04:52 | 33.64968 | -84.27654 | 3143 ft | 172 kts | 271° |
| 2026-04-19 04:52 | 33.64966 | -84.29031 | 2921 ft | 158 kts | 270° |
| 2026-04-19 04:52 | 33.64964 | -84.30287 | 2733 ft | 146 kts | 270° |
| 2026-04-19 04:53 | 33.64963 | -84.31465 | 2529 ft | 136 kts | 270° |
| 2026-04-19 04:53 | 33.64961 | -84.32569 | 2375 ft | 130 kts | 270° |
| 2026-04-19 04:53 | 33.64960 | -84.33645 | 2211 ft | 129 kts | 269° |
| 2026-04-19 04:53 | 33.64959 | -84.34735 | 2052 ft | 132 kts | 269° |
| 2026-04-19 04:54 | 33.64958 | -84.35839 | 1875 ft | 132 kts | 268° |
| 2026-04-19 04:54 | 33.64957 | -84.36930 | 1696 ft | 131 kts | 269° |
| 2026-04-19 04:54 | 33.64956 | -84.38047 | 1522 ft | 138 kts | 269° |
| 2026-04-19 04:54 | 33.64954 | -84.39214 | 1345 ft | 141 kts | 268° |
| 2026-04-19 04:55 | 33.64946 | -84.40398 | 1161 ft | 143 kts | 269° |
| 2026-04-19 04:55 | 33.64951 | -84.41586 | 1042 ft | 138 kts | 269° |
| 2026-04-19 04:55 | 33.64950 | -84.42571 | 1035 ft | 89 kts | 270° |
| 2026-04-19 04:55 | 33.64947 | -84.43046 | 1034 ft | 28 kts | 263° |
| 2026-04-19 04:56 | 33.64926 | -84.43163 | 1035 ft | 19 kts | 252° |
| 2026-04-19 04:56 | 33.64868 | -84.43309 | 1034 ft | 18 kts | 239° |
| 2026-04-19 04:56 | 33.64842 | -84.43444 | 1035 ft | 17 kts | 270° |
| 2026-04-19 04:56 | 33.64797 | -84.43547 | 1035 ft | 13 kts | 211° |
| 2026-04-19 04:57 | 33.64780 | -84.43559 | 1035 ft | 0 kts | 210° |
| 2026-04-19 04:57 | 33.64779 | -84.43560 | 1035 ft | 1 kts | 210° |
| 2026-04-19 04:57 | 33.64717 | -84.43603 | 1034 ft | 17 kts | 210° |
| 2026-04-19 04:58 | 33.64611 | -84.43675 | 1034 ft | 17 kts | 209° |
| 2026-04-19 04:58 | 33.64499 | -84.43718 | 1034 ft | 17 kts | 185° |
| 2026-04-19 04:58 | 33.64390 | -84.43706 | 1034 ft | 13 kts | 131° |
| 2026-04-19 04:58 | 33.64382 | -84.43641 | 1034 ft | 0 kts | 91° |